createdAt,value
2023-03-22T00:02:43.317Z,92664.00
2023-03-22T00:06:43.066Z,92662.00
2023-03-22T00:10:42.841Z,92660.00
2023-03-22T00:14:42.627Z,92660.00
2023-03-22T00:18:42.407Z,92658.00
2023-03-22T00:22:42.181Z,92656.00
2023-03-22T00:26:41.977Z,92656.00
2023-03-22T00:30:41.750Z,92660.00
2023-03-22T00:34:41.542Z,92662.00
2023-03-22T00:38:43.129Z,92662.00
2023-03-22T00:42:41.290Z,92658.00
2023-03-22T00:46:41.078Z,92660.00
2023-03-22T00:50:41.187Z,92662.00
2023-03-22T00:54:40.671Z,92658.00
2023-03-22T00:58:40.463Z,92646.00
2023-03-22T01:02:40.256Z,92646.00
2023-03-22T01:06:40.318Z,92641.00
2023-03-22T01:10:40.197Z,92637.00
2023-03-22T01:14:39.630Z,92633.00
2023-03-22T01:18:39.422Z,92631.00
2023-03-22T01:22:39.454Z,92637.00
2023-03-22T01:26:39.507Z,92635.00
2023-03-22T01:30:39.588Z,92635.00
2023-03-22T01:34:39.078Z,92631.00
2023-03-22T01:38:38.868Z,92625.00
2023-03-22T01:42:38.645Z,92623.00
2023-03-22T01:46:38.502Z,92621.00
2023-03-22T01:50:38.706Z,92619.00
2023-03-22T01:54:37.986Z,92619.00
2023-03-22T01:58:37.781Z,92621.00
2023-03-22T02:02:37.704Z,92621.00
2023-03-22T02:06:37.698Z,92621.00
2023-03-22T02:10:38.126Z,92633.00
2023-03-22T02:14:37.728Z,92639.00
2023-03-22T02:18:37.505Z,92643.00
2023-03-22T02:22:37.298Z,92639.00
2023-03-22T02:26:37.089Z,92631.00
2023-03-22T02:30:37.304Z,92623.00
2023-03-22T02:34:36.699Z,92613.00
2023-03-22T02:38:36.491Z,92611.00
2023-03-22T02:42:36.289Z,92607.00
2023-03-22T02:46:36.083Z,92609.00
2023-03-22T02:50:35.864Z,92617.00
2023-03-22T02:54:35.648Z,92617.00
2023-03-22T02:58:35.640Z,92617.00
2023-03-22T03:02:35.416Z,92617.00
2023-03-22T03:06:35.200Z,92615.00
2023-03-22T03:10:35.010Z,92611.00
2023-03-22T03:14:34.778Z,92607.00
2023-03-22T03:18:34.568Z,92607.00
2023-03-22T03:22:34.369Z,92605.00
2023-03-22T03:26:34.159Z,92601.00
2023-03-22T03:30:33.949Z,92599.00
2023-03-22T03:34:33.741Z,92599.00
2023-03-22T03:38:33.527Z,92601.00
2023-03-22T03:42:33.578Z,92603.00
2023-03-22T03:46:33.385Z,92607.00
2023-03-22T03:50:33.174Z,92609.00
2023-03-22T03:54:32.983Z,92611.00
2023-03-22T03:58:32.784Z,92611.00
2023-03-22T04:02:32.596Z,92609.00
2023-03-22T04:06:32.384Z,92605.00
2023-03-22T04:10:32.176Z,92607.00
2023-03-22T04:14:32.029Z,92611.00
2023-03-22T04:18:31.787Z,92609.00
2023-03-22T04:22:31.606Z,92611.00
2023-03-22T04:26:31.619Z,92615.00
2023-03-22T04:30:31.425Z,92619.00
2023-03-22T04:34:31.211Z,92619.00
2023-03-22T04:38:31.034Z,92617.00
2023-03-22T04:42:30.815Z,92621.00
2023-03-22T04:46:30.641Z,92621.00
2023-03-22T04:50:30.409Z,92627.00
2023-03-22T04:54:30.192Z,92621.00
2023-03-22T04:58:29.995Z,92625.00
2023-03-22T05:02:29.812Z,92627.00
2023-03-22T05:06:29.582Z,92627.00
2023-03-22T05:10:29.380Z,92631.00
2023-03-22T05:14:29.212Z,92633.00
2023-03-22T05:18:28.982Z,92631.00
2023-03-22T05:22:28.779Z,92633.00
2023-03-22T05:26:28.575Z,92631.00
2023-03-22T05:30:28.366Z,92631.00
2023-03-22T05:34:28.135Z,92635.00
2023-03-22T05:38:28.045Z,92633.00
2023-03-22T05:42:27.760Z,92633.00
2023-03-22T05:46:27.551Z,92631.00
2023-03-22T05:50:27.501Z,92633.00
2023-03-22T05:54:27.298Z,92633.00
2023-03-22T05:58:27.097Z,92635.00
2023-03-22T06:02:26.879Z,92639.00
2023-03-22T06:06:26.738Z,92643.00
2023-03-22T06:10:26.468Z,92635.00
2023-03-22T06:14:26.285Z,92641.00
2023-03-22T06:18:26.086Z,92641.00
2023-03-22T06:22:25.935Z,92643.00
2023-03-22T06:26:25.754Z,92641.00
2023-03-22T06:30:25.675Z,92643.00
2023-03-22T06:34:25.422Z,92643.00
2023-03-22T06:38:25.224Z,92645.00
2023-03-22T06:42:25.046Z,92643.00
2023-03-22T06:46:24.819Z,92643.00
2023-03-22T06:50:24.641Z,92643.00
2023-03-22T06:54:24.668Z,92646.00
2023-03-22T06:58:24.643Z,92643.00
2023-03-22T07:02:24.627Z,92641.00
2023-03-22T07:06:24.691Z,92641.00
2023-03-22T07:10:24.756Z,92637.00
2023-03-22T07:14:24.781Z,92639.00
2023-03-22T08:09:39.814Z,92615.00
2023-03-22T08:13:38.972Z,92609.00
2023-03-22T08:17:38.065Z,92605.00
2023-03-22T08:21:37.110Z,92601.00
2023-03-22T08:25:36.135Z,92598.00
2023-03-22T08:29:35.194Z,92594.00
2023-03-22T08:33:34.166Z,92594.00
2023-03-22T08:37:33.334Z,92594.00
2023-03-22T08:41:32.227Z,92578.00
2023-03-22T08:45:31.264Z,92572.00
2023-03-22T08:49:30.329Z,92568.00
2023-03-22T08:53:29.360Z,92564.00
2023-03-22T08:57:28.355Z,92559.00
2023-03-22T09:01:27.618Z,92555.00
2023-03-22T09:05:26.372Z,92547.00
2023-03-22T09:09:27.030Z,92537.00
2023-03-22T09:13:24.394Z,92535.00
2023-03-22T09:17:23.425Z,92531.00
2023-03-22T09:21:22.434Z,92519.00
2023-03-22T09:25:21.448Z,92514.00
2023-03-22T09:29:20.443Z,92508.00
2023-03-22T09:33:19.462Z,92496.00
2023-03-22T09:37:25.535Z,92490.00
2023-03-22T09:41:17.471Z,92482.00
2023-03-22T09:45:16.500Z,92474.00
2023-03-22T09:49:16.051Z,92468.00
2023-03-22T09:53:14.470Z,92455.00
2023-03-22T09:57:13.460Z,92447.00
2023-03-22T10:01:12.569Z,92437.00
2023-03-22T10:05:11.470Z,92429.00
2023-03-22T10:09:10.505Z,92423.00
2023-03-22T10:13:09.494Z,92417.00
2023-03-22T10:17:08.523Z,92412.00
2023-03-22T10:21:07.574Z,92408.00
2023-03-22T10:25:06.597Z,92402.00
2023-03-22T10:29:05.594Z,92396.00
2023-03-22T10:33:04.582Z,92392.00
2023-03-22T10:37:03.571Z,92390.00
2023-03-22T10:41:02.569Z,92384.00
2023-03-22T10:45:01.632Z,92382.00
2023-03-22T10:49:00.765Z,92372.00
2023-03-22T10:52:59.833Z,92365.00
2023-03-22T10:56:58.861Z,92357.00
2023-03-22T11:00:58.059Z,92349.00
2023-03-22T11:04:57.042Z,92345.00
2023-03-22T11:08:56.118Z,92341.00
2023-03-22T11:12:55.587Z,92328.00
2023-03-22T11:16:54.324Z,92320.00
2023-03-22T11:20:53.318Z,92312.00
2023-03-22T11:24:52.377Z,92304.00
2023-03-22T11:28:51.439Z,92300.00
2023-03-22T11:32:50.636Z,92292.00
2023-03-22T11:40:48.714Z,92282.00
2023-03-22T11:44:47.844Z,92279.00
2023-03-22T11:48:47.087Z,92273.00
2023-03-22T11:52:46.038Z,92265.00
2023-03-22T11:56:45.166Z,92255.00
2023-03-22T12:00:44.264Z,92255.00
2023-03-22T12:04:43.433Z,92247.00
2023-03-22T12:08:42.452Z,92243.00
2023-03-22T12:12:41.530Z,92232.00
2023-03-22T12:16:40.618Z,92228.00
2023-03-22T12:20:39.846Z,92220.00
2023-03-22T12:24:38.682Z,92216.00
2023-03-22T12:28:37.690Z,92208.00
2023-03-22T12:32:36.807Z,92204.00
2023-03-22T12:36:35.748Z,92196.00
2023-03-22T12:40:34.786Z,92190.00
2023-03-22T12:44:33.815Z,92185.00
2023-03-22T12:48:32.956Z,92179.00
2023-03-22T12:52:37.714Z,92169.00
2023-03-22T12:56:31.865Z,92165.00
2023-03-22T13:00:29.951Z,92155.00
2023-03-22T13:04:28.888Z,92149.00
2023-03-22T13:08:27.851Z,92143.00
2023-03-22T13:12:26.862Z,92137.00
2023-03-22T13:16:25.844Z,92133.00
2023-03-22T13:20:24.844Z,92130.00
2023-03-22T13:24:23.876Z,92124.00
2023-03-22T13:28:32.805Z,92116.00
2023-03-22T13:32:21.855Z,92110.00
2023-03-22T13:36:20.864Z,92102.00
2023-03-22T13:40:19.859Z,92094.00
2023-03-22T13:44:18.872Z,92090.00
2023-03-22T13:48:18.025Z,92086.00
2023-03-22T13:52:16.884Z,92085.00
2023-03-22T13:56:15.882Z,92081.00
2023-03-22T14:00:15.329Z,92081.00
2023-03-22T14:04:13.907Z,92069.00
2023-03-22T14:08:12.910Z,92065.00
2023-03-22T14:12:11.917Z,92063.00
2023-03-22T14:16:10.974Z,92063.00
2023-03-22T14:20:09.936Z,92063.00
2023-03-22T14:49:09.302Z,92042.00
2023-03-22T14:53:09.244Z,92038.00
2023-03-22T14:57:09.218Z,92034.00
2023-03-22T15:01:09.176Z,92036.00
2023-03-22T15:05:09.169Z,92034.00
2023-03-22T15:09:09.095Z,92030.00
2023-03-22T15:13:09.160Z,92028.00
2023-03-22T15:17:09.346Z,92028.00
2023-03-22T15:21:09.553Z,92030.00
2023-03-22T15:25:09.738Z,92032.00
2023-03-22T15:29:09.937Z,92032.00
2023-03-22T15:33:10.143Z,92034.00
2023-03-22T15:37:10.343Z,92036.00
2023-03-22T15:41:10.549Z,92032.00
2023-03-22T15:45:10.774Z,92034.00
2023-03-22T15:49:10.965Z,92038.00
2023-03-22T15:53:11.197Z,92040.00
2023-03-22T15:57:11.355Z,92044.00
2023-03-22T16:01:11.591Z,92046.00
2023-03-22T16:05:11.788Z,92050.00
2023-03-22T16:09:12.000Z,92048.00
2023-03-22T16:13:12.250Z,92048.00
2023-03-22T16:17:12.394Z,92052.00
2023-03-22T16:21:12.609Z,92057.00
2023-03-22T16:25:12.809Z,92063.00
2023-03-22T16:29:13.035Z,92069.00
2023-03-22T16:33:13.234Z,92071.00
2023-03-22T16:37:13.458Z,92085.00
2023-03-22T16:41:13.394Z,92085.00
2023-03-22T16:45:13.360Z,92090.00
2023-03-22T16:49:13.308Z,92092.00
2023-03-22T16:53:13.279Z,92100.00
2023-03-22T16:57:13.224Z,92098.00
2023-03-22T17:01:13.235Z,92100.00
2023-03-22T17:05:13.161Z,92110.00
2023-03-22T17:09:13.137Z,92116.00
2023-03-22T17:13:13.115Z,92122.00
2023-03-22T17:17:13.064Z,92126.00
2023-03-22T17:21:13.072Z,92128.00
2023-03-22T17:25:13.269Z,92135.00
2023-03-22T17:29:13.482Z,92143.00
2023-03-22T17:33:14.351Z,92143.00
2023-03-22T17:37:13.893Z,92151.00
2023-03-22T17:41:14.097Z,92159.00
2023-03-22T17:45:14.082Z,92167.00
2023-03-22T17:49:14.052Z,92179.00
2023-03-22T17:53:32.282Z,92190.00
2023-03-22T17:57:52.400Z,92200.00
2023-03-22T18:01:14.999Z,92206.00
2023-03-22T18:05:15.607Z,92218.00
2023-03-22T18:09:13.860Z,92226.00
2023-03-22T18:13:13.852Z,92234.00
2023-03-22T18:17:13.887Z,92243.00
2023-03-22T18:21:13.771Z,92259.00
2023-03-22T18:25:13.758Z,92265.00
2023-03-22T18:29:13.723Z,92269.00
2023-03-22T18:33:13.710Z,92279.00
2023-03-22T18:37:13.776Z,92284.00
2023-03-22T18:45:15.929Z,92300.00
2023-03-22T18:49:13.764Z,92308.00
2023-03-22T18:53:18.678Z,92316.00
2023-03-22T18:57:18.112Z,92322.00
2023-03-22T19:01:14.157Z,92335.00
2023-03-22T19:05:13.923Z,92328.00
2023-03-22T19:09:13.870Z,92328.00
2023-03-22T19:13:13.882Z,92339.00
2023-03-22T19:17:13.848Z,92343.00
2023-03-22T19:21:23.401Z,92349.00
2023-03-22T19:25:15.088Z,92349.00
2023-03-22T19:29:14.051Z,92351.00
2023-03-22T19:33:30.838Z,92363.00
2023-03-22T19:37:15.227Z,92365.00
2023-03-22T19:41:45.115Z,92368.00
2023-03-22T19:45:15.346Z,92370.00
2023-03-22T19:49:15.160Z,92374.00
2023-03-22T19:57:15.675Z,92384.00
2023-03-22T20:01:14.655Z,92388.00
2023-03-22T20:05:18.053Z,92388.00
2023-03-22T20:09:14.805Z,92392.00
2023-03-22T20:13:14.776Z,92394.00
2023-03-22T20:17:20.856Z,92396.00
2023-03-22T20:21:15.697Z,92400.00
2023-03-22T20:25:14.665Z,92404.00
2023-03-22T20:29:14.829Z,92406.00
2023-03-22T20:33:15.024Z,92408.00
2023-03-22T20:37:15.242Z,92412.00
2023-03-22T20:41:15.443Z,92410.00
2023-03-22T20:45:15.622Z,92412.00
2023-03-22T20:49:15.808Z,92415.00
2023-03-22T20:53:15.984Z,92419.00
2023-03-22T20:57:16.141Z,92421.00
2023-03-22T21:01:16.309Z,92423.00
2023-03-22T21:05:16.519Z,92423.00
2023-03-22T21:09:16.653Z,92433.00
2023-03-22T21:13:16.846Z,92435.00
2023-03-22T21:17:17.010Z,92433.00
2023-03-22T21:21:17.239Z,92437.00
2023-03-22T21:25:17.467Z,92439.00
2023-03-22T21:29:17.675Z,92443.00
2023-03-22T21:33:17.856Z,92445.00
2023-03-22T21:37:18.029Z,92447.00
2023-03-22T21:41:18.247Z,92453.00
2023-03-22T21:45:18.408Z,92445.00
2023-03-22T21:49:18.562Z,92449.00
2023-03-22T21:53:18.743Z,92453.00
2023-03-22T21:57:18.936Z,92455.00
2023-03-22T22:01:19.968Z,92455.00
2023-03-22T22:05:19.107Z,92457.00
2023-03-22T22:09:19.066Z,92453.00
2023-03-22T22:13:19.025Z,92459.00
2023-03-22T22:17:18.972Z,92453.00
2023-03-22T22:21:18.910Z,92453.00
2023-03-22T22:25:18.878Z,92453.00
2023-03-22T22:29:18.836Z,92453.00
2023-03-22T22:33:18.833Z,92455.00
2023-03-22T22:37:18.796Z,92455.00
2023-03-22T22:41:18.752Z,92457.00
2023-03-22T22:45:18.708Z,92457.00
2023-03-22T22:49:18.642Z,92455.00
2023-03-22T22:53:18.673Z,92453.00
2023-03-22T22:57:18.811Z,92453.00
2023-03-22T23:01:18.936Z,92457.00
2023-03-22T23:05:19.130Z,92457.00
2023-03-22T23:09:19.283Z,92455.00
2023-03-22T23:13:19.429Z,92457.00
2023-03-22T23:17:19.583Z,92460.00
2023-03-22T23:21:19.695Z,92459.00
2023-03-22T23:25:19.767Z,92453.00
2023-03-22T23:29:19.882Z,92459.00
2023-03-22T23:33:20.026Z,92459.00
2023-03-22T23:37:20.218Z,92457.00
2023-03-22T23:41:20.407Z,92455.00
2023-03-22T23:45:20.549Z,92451.00
2023-03-22T23:49:20.749Z,92449.00
2023-03-22T23:53:20.795Z,92447.00
2023-03-22T23:57:20.841Z,92441.00
